| time (UTC) | temp C | wind direction | speed KPH | gust KPH | rain 1hr cm | rain 24hr cm | rain mn cm | humidity % | barometer mb |
| 20260902060648 | 17 | 229 | 6.4 | 6.4 | 0.00 | 0.10 | 0.03 | 86 | 1014.1 |
| 20260902055848 | 17 | 263 | 3.2 | 8.0 | 0.00 | 0.10 | 0.03 | 88 | 1014.1 |
| 20260902055048 | 16 | 248 | 3.2 | 6.4 | 0.00 | 0.10 | 0.03 | 99 | 1014.0 |
| 20260902054248 | 15 | 266 | 3.2 | 6.4 | 0.00 | 0.10 | 0.03 | 99 | 1014.0 |
| 20260902053448 | 14 | 220 | 3.2 | 3.2 | 0.00 | 0.10 | 0.03 | 99 | 1014.0 |
| 20260902052648 | 13 | 226 | 1.6 | 3.2 | 0.00 | 0.10 | 0.03 | 99 | 1014.1 |
| 20260902051848 | 12 | 238 | 0.0 | 3.2 | 0.03 | 0.10 | 0.03 | 99 | 1014.0 |
| 20260902051048 | 12 | 240 | 1.6 | 3.2 | 0.03 | 0.10 | 0.03 | 99 | 1013.9 |
| 20260902050248 | 12 | 237 | 3.2 | 6.4 | 0.03 | 0.10 | 0.03 | 99 | 1013.7 |
| 20260902045448 | 11 | 240 | 0.0 | 3.2 | 0.03 | 0.10 | 0.03 | 99 | 1013.6 |
| 20260902044648 | 11 | 241 | 0.0 | 1.6 | 0.03 | 0.10 | 0.03 | 99 | 1013.6 |
| 20260902043847 | 11 | 0 | 0.0 | 0.0 | 0.03 | 0.13 | 0.03 | 99 | 1013.5 |
| 20260902043047 | 11 | 242 | 0.0 | 1.6 | 0.03 | 0.20 | 0.03 | 99 | 1013.4 |
| 20260902042247 | 11 | 227 | 0.0 | 3.2 | 0.03 | 0.20 | 0.03 | 99 | 1013.3 |
| 20260902041447 | 11 | 242 | 0.0 | 6.4 | 0.00 | 0.18 | 0.00 | 99 | 1013.4 |
| 20260902040647 | 11 | 232 | 3.2 | 6.4 | 0.00 | 0.18 | 0.00 | 99 | 1013.5 |
| 20260902035847 | 11 | 246 | 3.2 | 6.4 | 0.00 | 0.18 | 0.00 | 99 | 1013.4 |
| 20260902035047 | 11 | 227 | 1.6 | 3.2 | 0.00 | 0.18 | 0.00 | 99 | 1013.5 |
| 20260902034247 | 11 | 251 | 0.0 | 3.2 | 0.00 | 0.18 | 0.00 | 99 | 1013.2 |
| 20260902033447 | 11 | 0 | 0.0 | 0.0 | 0.00 | 0.18 | 0.00 | 99 | 1013.4 |
| 20260902032647 | 11 | 0 | 0.0 | 0.0 | 0.00 | 0.18 | 0.00 | 99 | 1013.3 |
| 20260902031847 | 11 | 0 | 0.0 | 0.0 | 0.00 | 0.18 | 0.00 | 99 | 1013.3 |
| 20260902031047 | 11 | 0 | 0.0 | 0.0 | 0.00 | 0.18 | 0.00 | 99 | 1013.5 |
| 20260902030247 | 11 | 0 | 0.0 | 0.0 | 0.00 | 0.18 | 0.00 | 99 | 1013.3 |
| 20260902025447 | 11 | 0 | 0.0 | 0.0 | 0.00 | 0.18 | 0.00 | 99 | 1013.4 |
| 20260902024647 | 11 | 0 | 0.0 | 0.0 | 0.00 | 0.18 | 0.00 | 99 | 1013.3 |
| 20260902023847 | 11 | 0 | 0.0 | 0.0 | 0.00 | 0.18 | 0.00 | 99 | 1013.3 |
| 20260902023047 | 11 | 225 | 0.0 | 1.6 | 0.00 | 0.18 | 0.00 | 99 | 1013.3 |
| 20260902022247 | 12 | 360 | 0.0 | 1.6 | 0.00 | 0.18 | 0.00 | 99 | 1013.2 |
| 20260902021447 | 12 | 360 | 0.0 | 3.2 | 0.00 | 0.18 | 0.00 | 99 | 1013.1 |
| 20260902020647 | 12 | 0 | 0.0 | 0.0 | 0.00 | 0.18 | 0.00 | 99 | 1013.3 |
| 20260902015847 | 12 | 360 | 0.0 | 1.6 | 0.00 | 0.18 | 0.00 | 99 | 1013.2 |
| 20260902015047 | 12 | 360 | 0.0 | 1.6 | 0.00 | 0.18 | 0.00 | 97 | 1013.3 |
| 20260902014247 | 12 | 360 | 0.0 | 1.6 | 0.00 | 0.18 | 0.00 | 97 | 1013.3 |
| 20260902013447 | 12 | 45 | 0.0 | 1.6 | 0.00 | 0.18 | 0.00 | 97 | 1013.1 |
| 20260902012647 | 12 | 0 | 0.0 | 0.0 | 0.00 | 0.18 | 0.00 | 97 | 1013.1 |
| 20260902011847 | 13 | 0 | 0.0 | 0.0 | 0.00 | 0.18 | 0.00 | 97 | 1013.2 |
| 20260902011047 | 13 | 245 | 0.0 | 3.2 | 0.00 | 0.18 | 0.00 | 97 | 1013.1 |
| 20260902010247 | 13 | 229 | 3.2 | 3.2 | 0.00 | 0.18 | 0.00 | 97 | 1013.1 |
| 20260902005447 | 13 | 0 | 0.0 | 0.0 | 0.00 | 0.18 | 0.00 | 97 | 1013.1 |
| 20260902004647 | 13 | 360 | 0.0 | 3.2 | 0.00 | 0.18 | 0.00 | 97 | 1013.0 |
| 20260902003847 | 13 | 0 | 0.0 | 0.0 | 0.00 | 0.18 | 0.00 | 97 | 1013.0 |
| 20260902003047 | 13 | 0 | 0.0 | 0.0 | 0.00 | 0.18 | 0.00 | 97 | 1012.9 |
| 20260902002247 | 13 | 0 | 0.0 | 0.0 | 0.00 | 0.18 | 0.00 | 97 | 1012.9 |
| 20260902001447 | 14 | 0 | 0.0 | 0.0 | 0.00 | 0.18 | 0.00 | 96 | 1012.8 |
| 20260902000647 | 14 | 0 | 0.0 | 0.0 | 0.00 | 0.18 | 0.00 | 97 | 1013.2 |
| 20260901235847 | 15 | 180 | 0.0 | 3.2 | 0.00 | 0.18 | 0.00 | 97 | 1012.8 |
| 20260901235047 | 15 | 180 | 0.0 | 3.2 | 0.00 | 0.18 | 0.00 | 96 | 1012.8 |
| 20260901234247 | 15 | 0 | 0.0 | 0.0 | 0.00 | 0.18 | 0.00 | 96 | 1012.9 |
| 20260901233447 | 14 | 0 | 0.0 | 0.0 | 0.00 | 0.18 | 0.00 | 96 | 1012.9 |
| 20260901232647 | 15 | 225 | 0.0 | 1.6 | 0.00 | 0.18 | 0.00 | 95 | 1012.6 |
| 20260901231847 | 15 | 0 | 0.0 | 0.0 | 0.00 | 0.18 | 0.00 | 95 | 1012.7 |
| 20260901231047 | 15 | 0 | 0.0 | 0.0 | 0.00 | 0.18 | 0.00 | 94 | 1012.8 |
| 20260901230247 | 14 | 45 | 0.0 | 3.2 | 0.00 | 0.18 | 0.00 | 93 | 1012.9 |
| 20260901225447 | 14 | 81 | 0.0 | 1.6 | 0.00 | 0.18 | 0.00 | 93 | 1012.8 |
| 20260901224647 | 14 | 135 | 0.0 | 1.6 | 0.00 | 0.18 | 0.00 | 92 | 1012.6 |
| 20260901223846 | 14 | 0 | 0.0 | 0.0 | 0.00 | 0.18 | 0.00 | 91 | 1012.9 |
| 20260901223047 | 14 | 0 | 0.0 | 0.0 | 0.00 | 0.18 | 0.00 | 91 | 1012.6 |
| 20260901222246 | 14 | 0 | 0.0 | 0.0 | 0.00 | 0.18 | 0.00 | 90 | 1012.7 |
| 20260901221446 | 14 | 0 | 0.0 | 0.0 | 0.00 | 0.18 | 0.00 | 90 | 1012.7 |
| 20260901220646 | 15 | 0 | 0.0 | 0.0 | 0.00 | 0.18 | 0.00 | 90 | 1012.7 |
| 20260901215846 | 15 | 28 | 0.0 | 3.2 | 0.00 | 0.18 | 0.18 | 89 | 1012.6 |
| 20260901215046 | 15 | 32 | 1.6 | 3.2 | 0.00 | 0.18 | 0.18 | 89 | 1012.4 |
| 20260901214246 | 16 | 0 | 0.0 | 0.0 | 0.00 | 0.18 | 0.18 | 88 | 1012.7 |
| 20260901213446 | 16 | 0 | 0.0 | 0.0 | 0.00 | 0.18 | 0.18 | 87 | 1012.7 |
| 20260901212646 | 16 | 10 | 0.0 | 3.2 | 0.00 | 0.18 | 0.18 | 87 | 1012.5 |
| 20260901211846 | 16 | 37 | 1.6 | 3.2 | 0.00 | 0.18 | 0.18 | 87 | 1012.5 |
| 20260901211046 | 16 | 45 | 1.6 | 3.2 | 0.00 | 0.18 | 0.18 | 85 | 1012.6 |
| 20260901210246 | 16 | 225 | 0.0 | 1.6 | 0.00 | 0.18 | 0.18 | 84 | 1012.5 |
| 20260901205446 | 16 | 225 | 0.0 | 3.2 | 0.00 | 0.18 | 0.18 | 84 | 1012.5 |
| 20260901204646 | 16 | 45 | 1.6 | 3.2 | 0.00 | 0.18 | 0.18 | 83 | 1012.3 |
| 20260901203846 | 16 | 42 | 1.6 | 3.2 | 0.00 | 0.18 | 0.18 | 83 | 1012.4 |
| 20260901203046 | 16 | 0 | 0.0 | 0.0 | 0.00 | 0.18 | 0.18 | 82 | 1012.3 |
| 20260901202247 | 16 | 0 | 0.0 | 0.0 | 0.00 | 0.18 | 0.18 | 81 | 1012.3 |
| 20260901201446 | 16 | 225 | 0.0 | 3.2 | 0.00 | 0.18 | 0.18 | 80 | 1012.3 |
| 20260901200646 | 16 | 225 | 1.6 | 3.2 | 0.00 | 0.18 | 0.18 | 80 | 1012.3 |
| 20260901195846 | 17 | 315 | 0.0 | 1.6 | 0.00 | 0.18 | 0.18 | 77 | 1012.4 |
| 20260901195047 | 17 | 6 | 0.0 | 1.6 | 0.00 | 0.18 | 0.18 | 72 | 1012.3 |
| 20260901194246 | 17 | 31 | 0.0 | 4.8 | 0.00 | 0.18 | 0.18 | 71 | 1012.3 |
| 20260901193446 | 18 | 29 | 3.2 | 6.4 | 0.00 | 0.18 | 0.18 | 71 | 1012.3 |
| 20260901192646 | 18 | 328 | 0.0 | 4.8 | 0.00 | 0.18 | 0.18 | 70 | 1012.2 |
| 20260901191846 | 18 | 276 | 3.2 | 6.4 | 0.00 | 0.18 | 0.18 | 70 | 1012.0 |
| 20260901191046 | 18 | 1 | 3.2 | 6.4 | 0.00 | 0.18 | 0.18 | 70 | 1011.9 |
| 20260901190246 | 18 | 221 | 3.2 | 6.4 | 0.00 | 0.18 | 0.18 | 71 | 1011.8 |
| 20260901185446 | 17 | 251 | 3.2 | 6.4 | 0.00 | 0.18 | 0.18 | 72 | 1011.5 |
| 20260901184646 | 17 | 258 | 4.8 | 6.4 | 0.00 | 0.18 | 0.18 | 72 | 1011.7 |
| 20260901183846 | 17 | 339 | 0.0 | 1.6 | 0.00 | 0.18 | 0.18 | 74 | 1011.5 |
| 20260901183046 | 17 | 348 | 0.0 | 3.2 | 0.00 | 0.18 | 0.18 | 73 | 1011.5 |
| 20260901182246 | 17 | 0 | 0.0 | 0.0 | 0.00 | 0.18 | 0.18 | 70 | 1011.4 |
| 20260901181446 | 18 | 0 | 0.0 | 0.0 | 0.00 | 0.18 | 0.18 | 65 | 1011.3 |
| 20260901180646 | 18 | 0 | 0.0 | 0.0 | 0.00 | 0.18 | 0.18 | 62 | 1011.1 |
| 20260901175846 | 19 | 305 | 0.0 | 3.2 | 0.00 | 0.18 | 0.18 | 61 | 1011.2 |
| 20260901175046 | 20 | 247 | 1.6 | 4.8 | 0.00 | 0.18 | 0.18 | 60 | 1011.1 |
| 20260901174246 | 20 | 258 | 3.2 | 9.7 | 0.00 | 0.18 | 0.18 | 59 | 1011.1 |
| 20260901173446 | 21 | 235 | 4.8 | 12.9 | 0.00 | 0.18 | 0.18 | 58 | 1010.8 |
| 20260901172646 | 21 | 222 | 8.0 | 12.9 | 0.00 | 0.18 | 0.18 | 58 | 1011.0 |
| 20260901171846 | 21 | 238 | 4.8 | 9.7 | 0.00 | 0.18 | 0.18 | 58 | 1011.0 |
| 20260901171046 | 21 | 245 | 6.4 | 11.3 | 0.00 | 0.18 | 0.18 | 58 | 1011.0 |
| 20260901170246 | 21 | 235 | 6.4 | 11.3 | 0.00 | 0.18 | 0.18 | 57 | 1010.8 |
| 20260901165446 | 22 | 237 | 3.2 | 12.9 | 0.00 | 0.18 | 0.18 | 55 | 1010.8 |
| 20260901164645 | 22 | 276 | 6.4 | 16.1 | 0.00 | 0.18 | 0.18 | 51 | 1010.8 |
| 20260901163845 | 23 | 271 | 8.0 | 16.1 | 0.00 | 0.18 | 0.18 | 50 | 1010.6 |
| 20260901163045 | 23 | 248 | 6.4 | 9.7 | 0.00 | 0.18 | 0.18 | 52 | 1010.7 |
| 20260901162245 | 22 | 229 | 6.4 | 14.5 | 0.00 | 0.18 | 0.18 | 56 | 1010.8 |
| 20260901161445 | 22 | 243 | 11.3 | 14.5 | 0.00 | 0.18 | 0.18 | 51 | 1010.7 |
| 20260901160645 | 23 | 295 | 8.0 | 12.9 | 0.00 | 0.18 | 0.18 | 49 | 1010.6 |
| 20260901155845 | 23 | 267 | 9.7 | 12.9 | 0.00 | 0.18 | 0.18 | 50 | 1010.6 |
| 20260901155045 | 23 | 260 | 4.8 | 14.5 | 0.00 | 0.18 | 0.18 | 50 | 1010.5 |
| 20260901154245 | 23 | 247 | 8.0 | 14.5 | 0.00 | 0.18 | 0.18 | 49 | 1010.4 |
| 20260901153445 | 24 | 243 | 8.0 | 17.7 | 0.00 | 0.18 | 0.18 | 48 | 1010.5 |
| 20260901152645 | 24 | 245 | 12.9 | 17.7 | 0.00 | 0.18 | 0.18 | 49 | 1010.4 |
| 20260901151845 | 24 | 270 | 6.4 | 17.7 | 0.00 | 0.18 | 0.18 | 48 | 1010.3 |
| 20260901151045 | 23 | 242 | 12.9 | 17.7 | 0.00 | 0.18 | 0.18 | 47 | 1010.4 |
| 20260901150245 | 25 | 248 | 11.3 | 25.7 | 0.00 | 0.18 | 0.18 | 45 | 1010.5 |
| 20260901145445 | 26 | 245 | 14.5 | 17.7 | 0.00 | 0.18 | 0.18 | 46 | 1010.4 |
| 20260901144645 | 25 | 263 | 6.4 | 12.9 | 0.00 | 0.18 | 0.18 | 50 | 1010.4 |
| 20260901143845 | 23 | 265 | 6.4 | 17.7 | 0.00 | 0.18 | 0.18 | 52 | 1010.5 |
| 20260901143045 | 23 | 255 | 9.7 | 17.7 | 0.00 | 0.18 | 0.18 | 52 | 1010.6 |
| 20260901142245 | 23 | 250 | 4.8 | 17.7 | 0.00 | 0.18 | 0.18 | 53 | 1010.6 |
| 20260901141445 | 23 | 237 | 11.3 | 19.3 | 0.00 | 0.18 | 0.18 | 53 | 1010.6 |
| 20260901140645 | 23 | 206 | 14.5 | 25.7 | 0.00 | 0.18 | 0.18 | 53 | 1010.5 |
| 20260901135845 | 23 | 225 | 11.3 | 25.7 | 0.00 | 0.18 | 0.18 | 54 | 1010.7 |
| 20260901135045 | 23 | 236 | 14.5 | 22.5 | 0.00 | 0.18 | 0.18 | 53 | 1010.7 |
| 20260901134245 | 23 | 241 | 14.5 | 25.7 | 0.00 | 0.18 | 0.18 | 54 | 1010.8 |
| 20260901133445 | 23 | 232 | 12.9 | 24.1 | 0.00 | 0.18 | 0.18 | 54 | 1010.9 |
| 20260901132645 | 23 | 224 | 14.5 | 22.5 | 0.00 | 0.18 | 0.18 | 53 | 1010.8 |
| 20260901131845 | 22 | 226 | 6.4 | 19.3 | 0.00 | 0.18 | 0.18 | 60 | 1011.0 |
| 20260901131045 | 21 | 231 | 14.5 | 19.3 | 0.00 | 0.18 | 0.18 | 63 | 1011.0 |
| 20260901130245 | 21 | 224 | 12.9 | 22.5 | 0.00 | 0.18 | 0.18 | 64 | 1011.0 |
| 20260901125445 | 21 | 235 | 16.1 | 24.1 | 0.00 | 0.18 | 0.18 | 63 | 1010.8 |
| 20260901124645 | 22 | 258 | 12.9 | 24.1 | 0.00 | 0.18 | 0.18 | 62 | 1010.7 |
| 20260901123845 | 22 | 265 | 14.5 | 24.1 | 0.00 | 0.18 | 0.18 | 56 | 1010.8 |
| 20260901123045 | 23 | 245 | 6.4 | 20.9 | 0.00 | 0.18 | 0.18 | 58 | 1010.8 |
| 20260901122245 | 23 | 267 | 9.7 | 17.7 | 0.00 | 0.18 | 0.18 | 60 | 1010.8 |
| 20260901121445 | 22 | 239 | 12.9 | 17.7 | 0.00 | 0.18 | 0.18 | 60 | 1010.7 |
| 20260901120645 | 22 | 262 | 11.3 | 17.7 | 0.03 | 0.18 | 0.18 | 61 | 1010.9 |
| 20260901115845 | 23 | 254 | 9.7 | 17.7 | 0.03 | 0.18 | 0.18 | 62 | 1011.0 |
| 20260901115045 | 22 | 242 | 8.0 | 12.9 | 0.03 | 0.18 | 0.18 | 66 | 1011.2 |
| 20260901114245 | 22 | 244 | 11.3 | 12.9 | 0.03 | 0.18 | 0.18 | 70 | 1011.1 |
| 20260901113445 | 21 | 235 | 8.0 | 12.9 | 0.03 | 0.18 | 0.18 | 73 | 1011.2 |
| 20260901112645 | 20 | 241 | 6.4 | 9.7 | 0.03 | 0.18 | 0.18 | 80 | 1011.2 |
| 20260901111845 | 18 | 243 | 6.4 | 12.9 | 0.03 | 0.18 | 0.18 | 80 | 1011.2 |
| 20260901111045 | 18 | 279 | 6.4 | 27.4 | 0.03 | 0.18 | 0.18 | 75 | 1011.1 |
| 20260901110244 | 20 | 257 | 19.3 | 27.4 | 0.00 | 0.15 | 0.15 | 70 | 1011.3 |
| 20260901105444 | 21 | 254 | 14.5 | 17.7 | 0.00 | 0.15 | 0.15 | 64 | 1011.0 |
| 20260901104644 | 21 | 243 | 9.7 | 24.1 | 0.00 | 0.15 | 0.15 | 66 | 1010.8 |
| 20260901103844 | 21 | 254 | 12.9 | 27.4 | 0.00 | 0.15 | 0.15 | 65 | 1010.8 |
| 20260901103044 | 21 | 250 | 19.3 | 27.4 | 0.00 | 0.15 | 0.15 | 66 | 1010.6 |
| 20260901102244 | 20 | 251 | 4.8 | 14.5 | 0.00 | 0.15 | 0.15 | 71 | 1010.6 |
| 20260901101444 | 19 | 255 | 11.3 | 25.7 | 0.00 | 0.15 | 0.15 | 74 | 1010.8 |
| 20260901100644 | 18 | 264 | 11.3 | 14.5 | 0.00 | 0.15 | 0.15 | 75 | 1010.7 |
| 20260901095844 | 18 | 236 | 8.0 | 14.5 | 0.03 | 0.15 | 0.15 | 75 | 1010.6 |
| 20260901095044 | 18 | 240 | 9.7 | 24.1 | 0.03 | 0.15 | 0.15 | 77 | 1010.7 |
| 20260901094244 | 18 | 253 | 16.1 | 19.3 | 0.03 | 0.15 | 0.15 | 76 | 1010.8 |
| 20260901093444 | 18 | 224 | 6.4 | 17.7 | 0.03 | 0.15 | 0.15 | 77 | 1010.5 |
| 20260901092644 | 18 | 220 | 12.9 | 24.1 | 0.03 | 0.15 | 0.15 | 77 | 1010.6 |
| 20260901091844 | 18 | 249 | 8.0 | 24.1 | 0.03 | 0.15 | 0.15 | 77 | 1010.4 |
| 20260901091044 | 18 | 249 | 12.9 | 22.5 | 0.03 | 0.15 | 0.15 | 76 | 1010.4 |
| 20260901090244 | 18 | 249 | 12.9 | 19.3 | 0.00 | 0.13 | 0.13 | 76 | 1010.4 |
| 20260901085444 | 19 | 271 | 11.3 | 19.3 | 0.00 | 0.13 | 0.13 | 76 | 1010.3 |
| 20260901084644 | 18 | 233 | 6.4 | 20.9 | 0.00 | 0.13 | 0.13 | 79 | 1010.2 |
| 20260901083844 | 18 | 227 | 4.8 | 19.3 | 0.00 | 0.13 | 0.13 | 82 | 1010.1 |
| 20260901083044 | 17 | 232 | 9.7 | 19.3 | 0.00 | 0.13 | 0.13 | 82 | 1010.1 |
| 20260901082244 | 17 | 256 | 6.4 | 16.1 | 0.00 | 0.13 | 0.13 | 84 | 1010.2 |
| 20260901081444 | 17 | 235 | 6.4 | 16.1 | 0.00 | 0.13 | 0.13 | 90 | 1010.1 |
| 20260901080644 | 17 | 199 | 4.8 | 12.9 | 0.00 | 0.13 | 0.13 | 90 | 1010.0 |
| 20260901075844 | 17 | 217 | 4.8 | 14.5 | 0.00 | 0.13 | 0.13 | 90 | 1009.8 |
| 20260901075044 | 16 | 224 | 6.4 | 17.7 | 0.00 | 0.13 | 0.13 | 89 | 1009.8 |
| 20260901074244 | 16 | 251 | 6.4 | 17.7 | 0.00 | 0.13 | 0.13 | 87 | 1009.7 |
| 20260901073444 | 16 | 239 | 3.2 | 14.5 | 0.00 | 0.13 | 0.13 | 85 | 1009.6 |
| 20260901072644 | 17 | 230 | 8.0 | 17.7 | 0.00 | 0.13 | 0.13 | 80 | 1009.5 |
| 20260901071844 | 18 | 239 | 9.7 | 17.7 | 0.00 | 0.13 | 0.13 | 81 | 1009.3 |
| 20260901071044 | 17 | 248 | 6.4 | 12.9 | 0.00 | 0.13 | 0.13 | 85 | 1009.4 |
| 20260901070244 | 16 | 236 | 4.8 | 17.7 | 0.00 | 0.13 | 0.13 | 88 | 1009.1 |
| 20260901065444 | 16 | 237 | 6.4 | 17.7 | 0.00 | 0.13 | 0.13 | 87 | 1009.2 |
| 20260901064644 | 16 | 250 | 12.9 | 17.7 | 0.00 | 0.13 | 0.13 | 85 | 1009.0 |
| 20260901063844 | 17 | 263 | 6.4 | 19.3 | 0.00 | 0.13 | 0.13 | 83 | 1009.1 |
| 20260901063044 | 17 | 236 | 9.7 | 17.7 | 0.00 | 0.13 | 0.13 | 78 | 1009.0 |
| 20260901062244 | 18 | 230 | 9.7 | 17.7 | 0.00 | 0.13 | 0.13 | 83 | 1008.9 |
| 20260901061444 | 17 | 276 | 4.8 | 12.9 | 0.00 | 0.13 | 0.13 | 97 | 1008.7 |